Time;durP1;ratioP1;P1;durP2;ratioP2;P2;SDS_P1;SDS_P2;PMS_P1;PMS_P2;Temp;Humidity;BMP_temperature;BMP_pressure;BME280_temperature;BME280_humidity;BME280_pressure;Samples;Min_cycle;Max_cycle;Signal;HPM_P1;HPM_P2
2024/04/03 00:02:20;;;;;;;;;;;;;;;15.20;50.05;97800.70;68055;1275;1018333;-65
2024/04/03 00:05:22;;;;;;;;;;;;;;;15.23;50.20;97803.04;68023;1275;1016382;-65
2024/04/03 00:08:25;;;;;;;;;;;;;;;15.35;50.24;97796.13;67996;1275;1016371;-65
2024/04/03 00:11:28;;;;;;;;;;;;;;;15.36;50.13;97804.76;68052;1275;1016050;-65
2024/04/03 00:14:31;;;;;;;;;;;;;;;15.35;50.10;97804.25;67999;1275;1016323;-65
2024/04/03 00:17:33;;;;;;;;;;;;;;;15.20;50.76;97795.55;68001;1275;1016249;-65
2024/04/03 00:20:37;;;;;;;;;;;;;;;15.21;51.01;97792.13;67987;1275;1016272;-64
2024/04/03 00:23:39;;;;;;;;;;;;;;;15.26;51.12;97789.20;67989;1275;1016445;-65
2024/04/03 00:26:42;;;;;;;;;;;;;;;15.30;51.07;97792.64;67969;1275;1016468;-65
2024/04/03 00:29:44;;;;;;;;;;;;;;;15.13;51.32;97791.36;68058;1275;1016200;-65
2024/04/03 00:32:46;;;;;;;;;;;;;;;15.12;51.32;97789.64;68039;1275;1016202;-65
2024/04/03 00:35:49;;;;;;;;;;;;;;;15.12;51.07;97793.76;68022;1275;1016008;-66
2024/04/03 00:38:51;;;;;;;;;;;;;;;15.01;51.27;97796.73;67990;1275;1016477;-65
2024/04/03 00:41:54;;;;;;;;;;;;;;;14.99;51.23;97799.38;67989;1275;1016301;-66
2024/04/03 00:44:56;;;;;;;;;;;;;;;15.03;50.91;97803.55;68067;1275;1016553;-66
2024/04/03 00:47:58;;;;;;;;;;;;;;;15.11;50.86;97798.93;68040;1275;1016586;-65
2024/04/03 00:51:01;;;;;;;;;;;;;;;14.97;51.10;97802.13;68041;1275;1016312;-65
2024/04/03 00:54:03;;;;;;;;;;;;;;;15.02;50.88;97798.58;68040;1275;1016933;-66
2024/04/03 00:57:06;;;;;;;;;;;;;;;15.06;50.63;97798.81;68009;1275;1016376;-65
2024/04/03 01:00:08;;;;;;;;;;;;;;;15.06;50.90;97796.56;68018;1275;1016375;-64
2024/04/03 01:03:10;;;;;;;;;;;;;;;15.02;50.68;97798.55;68058;1275;1017094;-65
2024/04/03 01:06:13;;;;;;;;;;;;;;;14.98;50.95;97803.33;68036;1275;1016375;-65
2024/04/03 01:09:15;;;;;;;;;;;;;;;14.99;50.99;97796.88;68039;1275;1016401;-65
2024/04/03 01:12:17;;;;;;;;;;;;;;;15.02;51.15;97793.43;68037;1275;1016423;-64
2024/04/03 01:15:20;;;;;;;;;;;;;;;15.15;50.76;97792.20;68011;1275;1016484;-66
2024/04/03 01:18:22;;;;;;;;;;;;;;;15.22;50.21;97799.98;67972;1275;1016837;-65
2024/04/03 01:21:24;;;;;;;;;;;;;;;15.42;49.84;97790.95;68036;1275;1016935;-65
2024/04/03 01:24:27;;;;;;;;;;;;;;;15.36;50.06;97793.30;68072;1275;1016859;-65
2024/04/03 01:27:29;;;;;;;;;;;;;;;15.39;49.77;97798.37;68016;1275;1015977;-65
2024/04/03 01:30:32;;;;;;;;;;;;;;;15.25;49.65;97802.15;68021;1275;1018034;-65
2024/04/03 01:33:34;;;;;;;;;;;;;;;15.29;49.74;97794.15;67995;1275;1016228;-65
2024/04/03 01:36:36;;;;;;;;;;;;;;;15.21;49.82;97794.39;67971;1275;1016035;-65
2024/04/03 01:39:39;;;;;;;;;;;;;;;15.11;49.93;97803.09;68064;1275;1016287;-66
2024/04/03 01:42:41;;;;;;;;;;;;;;;15.10;50.03;97797.21;67986;1275;1016429;-64
2024/04/03 01:45:44;;;;;;;;;;;;;;;15.04;49.96;97805.05;68013;1275;1016056;-64
2024/04/03 01:48:46;;;;;;;;;;;;;;;14.93;50.40;97812.61;68015;1275;1016241;-64
2024/04/03 01:51:50;;;;;;;;;;;;;;;15.03;50.44;97808.86;68003;1275;1016257;-65
2024/04/03 01:54:53;;;;;;;;;;;;;;;15.06;50.26;97803.23;68006;1275;1016376;-65
2024/04/03 01:57:55;;;;;;;;;;;;;;;15.07;50.28;97802.47;68038;1275;1016520;-64
2024/04/03 02:00:57;;;;;;;;;;;;;;;15.02;50.74;97803.27;68074;1275;1016457;-64
2024/04/03 02:04:00;;;;;;;;;;;;;;;15.12;50.44;97801.64;68014;1275;1016940;-65
2024/04/03 02:07:02;;;;;;;;;;;;;;;15.19;50.56;97789.33;67970;1275;1016484;-65
2024/04/03 02:10:04;;;;;;;;;;;;;;;15.11;50.70;97792.79;68019;1275;1016468;-64
2024/04/03 02:13:07;;;;;;;;;;;;;;;15.02;50.89;97794.67;68034;1275;1016356;-64
2024/04/03 02:16:09;;;;;;;;;;;;;;;15.21;50.47;97795.09;68041;1275;1016375;-65
2024/04/03 02:19:12;;;;;;;;;;;;;;;15.12;50.58;97792.27;68061;1275;1016450;-65
2024/04/03 02:22:15;;;;;;;;;;;;;;;15.12;50.76;97796.16;68066;1275;1016792;-65
2024/04/03 02:25:18;;;;;;;;;;;;;;;14.88;51.30;97798.98;68036;1275;1016671;-64
2024/04/03 02:28:22;;;;;;;;;;;;;;;14.95;51.00;97805.73;68033;1275;1016346;-65
2024/04/03 02:31:25;;;;;;;;;;;;;;;15.06;50.73;97800.80;67983;1275;1016522;-65
2024/04/03 02:34:27;;;;;;;;;;;;;;;15.25;50.16;97794.90;67989;1275;1016821;-65
2024/04/03 02:37:29;;;;;;;;;;;;;;;15.24;50.34;97787.82;68063;1275;1016549;-65
2024/04/03 02:40:31;;;;;;;;;;;;;;;15.28;50.41;97791.63;68045;1275;1018828;-64
2024/04/03 02:43:34;;;;;;;;;;;;;;;15.25;50.44;97787.38;68057;1275;1016482;-64
2024/04/03 02:46:36;;;;;;;;;;;;;;;15.26;50.41;97773.04;68054;1275;1019218;-62
2024/04/03 02:49:38;;;;;;;;;;;;;;;15.15;50.08;97779.33;68014;1275;1016403;-64
2024/04/03 02:52:41;;;;;;;;;;;;;;;15.22;50.05;97771.92;67995;1275;1016724;-65
2024/04/03 02:55:43;;;;;;;;;;;;;;;15.05;50.27;97789.45;68002;1275;1016287;-65
2024/04/03 02:58:45;;;;;;;;;;;;;;;15.04;50.42;97797.43;68003;1275;1016894;-64
2024/04/03 03:01:48;;;;;;;;;;;;;;;15.02;50.43;97800.64;67969;1275;1016413;-63
2024/04/03 03:04:51;;;;;;;;;;;;;;;15.07;50.44;97802.61;68040;1275;1016887;-65
2024/04/03 03:07:53;;;;;;;;;;;;;;;15.14;50.43;97802.45;68023;1275;1016202;-65
2024/04/03 03:10:56;;;;;;;;;;;;;;;15.18;50.36;97794.02;68013;1275;1016419;-65
2024/04/03 03:13:58;;;;;;;;;;;;;;;15.06;50.56;97787.61;68020;1275;1016424;-64
2024/04/03 03:17:01;;;;;;;;;;;;;;;15.09;50.40;97787.61;68001;1275;1016485;-65
2024/04/03 03:20:03;;;;;;;;;;;;;;;15.22;50.36;97773.86;68055;1275;1016127;-65
2024/04/03 03:23:05;;;;;;;;;;;;;;;15.24;50.22;97777.89;67990;1275;1016298;-65
2024/04/03 03:26:08;;;;;;;;;;;;;;;15.51;49.47;97770.53;67992;1275;1016314;-65
2024/04/03 03:29:10;;;;;;;;;;;;;;;15.40;49.65;97773.74;68020;1275;1016376;-64
2024/04/03 03:32:12;;;;;;;;;;;;;;;15.25;50.08;97777.00;68029;1275;1016480;-65
2024/04/03 03:35:15;;;;;;;;;;;;;;;15.03;50.76;97774.36;68042;1275;1016220;-65
2024/04/03 03:38:17;;;;;;;;;;;;;;;15.03;51.48;97771.47;68051;1275;1016432;-63
2024/04/03 03:41:20;;;;;;;;;;;;;;;15.02;51.07;97781.29;68007;1275;1016296;-65
2024/04/03 03:44:24;;;;;;;;;;;;;;;15.05;51.46;97775.89;67992;1275;1016465;-65
2024/04/03 03:47:26;;;;;;;;;;;;;;;14.92;51.40;97781.86;67975;1275;1016407;-65
2024/04/03 03:53:49;;;;;;;;;;;;;;;15.03;51.26;97782.89;68049;1275;1016917;-65
2024/04/03 03:56:51;;;;;;;;;;;;;;;15.08;51.04;97776.16;68041;1275;1016345;-65
2024/04/03 03:59:53;;;;;;;;;;;;;;;15.10;51.01;97780.17;68043;1275;1016219;-65
2024/04/03 04:02:56;;;;;;;;;;;;;;;15.04;51.35;97786.55;68021;1275;1016372;-65
2024/04/03 04:05:58;;;;;;;;;;;;;;;15.05;51.02;97794.87;67999;1275;1016892;-64
2024/04/03 04:09:01;;;;;;;;;;;;;;;14.88;51.78;97791.55;68011;1275;1016447;-64
2024/04/03 04:12:03;;;;;;;;;;;;;;;14.87;51.55;97789.38;68007;1275;1017025;-65
2024/04/03 04:15:05;;;;;;;;;;;;;;;14.94;51.50;97790.87;68039;1275;1016539;-64
2024/04/03 04:18:10;;;;;;;;;;;;;;;14.96;51.58;97792.64;67991;1275;1016302;-65
2024/04/03 04:21:15;;;;;;;;;;;;;;;15.02;51.66;97789.05;67971;1275;1017034;-65
2024/04/03 04:24:20;;;;;;;;;;;;;;;14.85;52.72;97800.27;68054;1275;1016114;-65
2024/04/03 04:27:25;;;;;;;;;;;;;;;14.77;53.28;97794.75;68003;1275;1016433;-65
2024/04/03 04:30:27;;;;;;;;;;;;;;;14.83;53.27;97789.21;68059;1275;1016368;-65
2024/04/03 04:33:30;;;;;;;;;;;;;;;14.79;53.35;97786.95;68007;1275;1016467;-65
2024/04/03 04:36:32;;;;;;;;;;;;;;;14.68;53.81;97780.61;68043;1275;1016923;-65
2024/04/03 04:39:35;;;;;;;;;;;;;;;14.64;53.96;97784.67;67967;1275;1016203;-65
2024/04/03 04:42:37;;;;;;;;;;;;;;;14.73;53.82;97781.08;67988;1275;1016374;-63
2024/04/03 04:45:39;;;;;;;;;;;;;;;14.75;53.75;97779.95;68042;1275;1016365;-65
2024/04/03 04:48:42;;;;;;;;;;;;;;;14.89;53.40;97776.02;68027;1275;1016523;-63
2024/04/03 04:51:44;;;;;;;;;;;;;;;14.94;53.06;97769.37;68051;1275;1016159;-65
2024/04/03 04:54:46;;;;;;;;;;;;;;;14.94;53.25;97774.67;68062;1275;1015496;-63
2024/04/03 04:57:49;;;;;;;;;;;;;;;15.00;53.08;97778.08;67995;1275;1016266;-64
2024/04/03 05:00:51;;;;;;;;;;;;;;;15.20;52.47;97768.75;68008;1275;1016196;-64
2024/04/03 05:03:54;;;;;;;;;;;;;;;15.18;52.00;97768.27;68036;1275;1016608;-65
2024/04/03 05:06:58;;;;;;;;;;;;;;;15.08;52.50;97769.11;67984;1275;1016050;-64
2024/04/03 05:10:01;;;;;;;;;;;;;;;15.11;52.36;97780.25;67975;1275;1016407;-65
2024/04/03 05:13:04;;;;;;;;;;;;;;;15.20;52.06;97776.91;67977;1275;1016472;-65
2024/04/03 05:16:07;;;;;;;;;;;;;;;15.26;52.02;97777.42;68011;1275;1016280;-64
2024/04/03 05:19:10;;;;;;;;;;;;;;;15.45;51.73;97784.04;68044;1275;1016478;-64
2024/04/03 05:22:14;;;;;;;;;;;;;;;15.49;51.51;97791.61;68052;1275;1019249;-65
2024/04/03 05:25:16;;;;;;;;;;;;;;;15.50;51.37;97794.63;68012;1275;1016597;-64
2024/04/03 05:28:19;;;;;;;;;;;;;;;15.52;51.18;97786.88;68000;1275;1017297;-64
2024/04/03 05:31:23;;;;;;;;;;;;;;;15.45;51.40;97791.02;67999;1275;1016394;-65
2024/04/03 05:34:27;;;;;;;;;;;;;;;15.23;51.65;97797.91;67975;1275;1016822;-64
2024/04/03 05:37:30;;;;;;;;;;;;;;;15.30;51.16;97796.22;68053;1275;1016413;-65
2024/04/03 05:40:32;;;;;;;;;;;;;;;15.66;50.49;97806.31;68050;1275;1016395;-65
2024/04/03 05:43:35;;;;;;;;;;;;;;;15.68;50.44;97804.89;68009;1275;1016304;-65
2024/04/03 05:46:37;;;;;;;;;;;;;;;15.51;50.92;97802.60;67993;1275;1017033;-64
2024/04/03 05:49:39;;;;;;;;;;;;;;;15.82;50.18;97798.90;68022;1275;1017955;-64
2024/04/03 05:52:42;;;;;;;;;;;;;;;15.83;49.74;97809.08;68039;1275;1016474;-65
2024/04/03 05:55:44;;;;;;;;;;;;;;;15.81;49.68;97807.63;68049;1275;1016135;-64
2024/04/03 05:58:51;;;;;;;;;;;;;;;15.94;49.74;97801.45;67989;1275;1016028;-64
2024/04/03 06:01:54;;;;;;;;;;;;;;;16.07;49.12;97798.73;65434;1275;6378649;-65
2024/04/03 06:04:56;;;;;;;;;;;;;;;16.01;49.40;97789.98;67993;1275;1016272;-65
2024/04/03 06:07:59;;;;;;;;;;;;;;;16.05;49.05;97803.35;68048;1275;1016411;-64
2024/04/03 06:11:01;;;;;;;;;;;;;;;16.17;49.10;97801.45;68006;1275;1016482;-65
2024/04/03 06:14:04;;;;;;;;;;;;;;;16.22;48.53;97807.30;67998;1275;1018821;-64
2024/04/03 06:17:07;;;;;;;;;;;;;;;16.37;48.74;97805.42;67990;1275;1016248;-65
2024/04/03 06:20:10;;;;;;;;;;;;;;;16.57;48.23;97803.39;68000;1275;1016162;-65
2024/04/03 06:23:12;;;;;;;;;;;;;;;16.45;48.13;97795.86;68021;1275;1016577;-65
2024/04/03 06:26:14;;;;;;;;;;;;;;;16.35;48.12;97808.28;68042;1275;1016164;-64
2024/04/03 06:29:18;;;;;;;;;;;;;;;16.52;48.07;97792.11;68022;1275;1016154;-65
2024/04/03 06:32:23;;;;;;;;;;;;;;;16.49;48.10;97806.23;68063;1275;1016337;-64
2024/04/03 06:35:25;;;;;;;;;;;;;;;16.56;48.02;97802.98;67979;1275;1016476;-65
2024/04/03 06:38:28;;;;;;;;;;;;;;;16.55;47.76;97789.65;68011;1275;1015889;-65
2024/04/03 06:41:31;;;;;;;;;;;;;;;16.40;47.52;97813.97;68024;1275;1015748;-65
2024/04/03 06:44:37;;;;;;;;;;;;;;;16.31;47.84;97814.89;67997;1275;1016470;-63
2024/04/03 06:47:39;;;;;;;;;;;;;;;16.44;47.72;97817.43;67948;1275;1016335;-64
2024/04/03 06:50:42;;;;;;;;;;;;;;;16.51;47.58;97809.77;67953;1275;1016480;-65
2024/04/03 06:53:44;;;;;;;;;;;;;;;16.51;47.81;97806.64;67998;1275;1016439;-65
2024/04/03 06:56:47;;;;;;;;;;;;;;;16.85;47.36;97822.63;67985;1275;1016268;-65
2024/04/03 06:59:49;;;;;;;;;;;;;;;16.82;46.37;97821.02;67957;1275;1016423;-65
2024/04/03 07:02:51;;;;;;;;;;;;;;;16.84;46.66;97831.58;67971;1275;1016420;-65
2024/04/03 07:05:54;;;;;;;;;;;;;;;16.67;47.48;97835.92;68010;1275;1018446;-64
2024/04/03 07:08:56;;;;;;;;;;;;;;;16.54;46.92;97825.81;68045;1275;1016269;-64
2024/04/03 07:11:58;;;;;;;;;;;;;;;16.57;46.67;97845.41;68028;1275;1018102;-64
2024/04/03 07:15:01;;;;;;;;;;;;;;;16.67;46.75;97845.14;68012;1275;1017038;-65
2024/04/03 07:18:03;;;;;;;;;;;;;;;16.68;46.66;97836.20;67989;1275;1016204;-65
2024/04/03 07:21:05;;;;;;;;;;;;;;;16.81;46.53;97856.11;68005;1275;1015824;-64
2024/04/03 07:24:08;;;;;;;;;;;;;;;16.91;46.02;97845.77;68036;1275;1016393;-63
2024/04/03 07:27:10;;;;;;;;;;;;;;;16.99;46.45;97835.55;68026;1275;1016261;-65
2024/04/03 07:30:12;;;;;;;;;;;;;;;17.00;45.88;97836.52;68038;1275;1016449;-64
2024/04/03 07:33:14;;;;;;;;;;;;;;;17.39;46.02;97830.40;68038;1275;1016533;-64
2024/04/03 07:36:18;;;;;;;;;;;;;;;17.56;45.23;97847.16;67983;1275;1016643;-65
2024/04/03 07:39:20;;;;;;;;;;;;;;;17.30;44.73;97859.52;68041;1275;1016275;-64
2024/04/03 07:42:23;;;;;;;;;;;;;;;17.40;45.08;97843.33;68022;1275;1016214;-65
2024/04/03 07:45:25;;;;;;;;;;;;;;;17.85;44.64;97831.39;67914;1275;1016547;-65
2024/04/03 07:48:27;;;;;;;;;;;;;;;18.29;43.76;97825.95;67961;1275;1016453;-64
2024/04/03 07:51:30;;;;;;;;;;;;;;;18.28;42.74;97838.42;68002;1275;1017806;-64
2024/04/03 07:54:33;;;;;;;;;;;;;;;18.12;42.98;97833.42;68003;1275;1016456;-64
2024/04/03 07:57:36;;;;;;;;;;;;;;;18.20;43.36;97833.30;67964;1275;1016205;-64
2024/04/03 08:00:39;;;;;;;;;;;;;;;18.48;43.25;97831.55;67968;1275;1016465;-65
2024/04/03 08:03:42;;;;;;;;;;;;;;;18.48;42.34;97833.46;68018;1275;1016323;-65
2024/04/03 08:06:44;;;;;;;;;;;;;;;18.44;41.96;97830.06;68027;1275;1016346;-64
2024/04/03 08:09:47;;;;;;;;;;;;;;;18.44;41.61;97835.80;68017;1275;1018327;-65
2024/04/03 08:12:49;;;;;;;;;;;;;;;18.37;42.60;97832.48;67967;1275;1016459;-64
2024/04/03 08:15:52;;;;;;;;;;;;;;;18.35;42.47;97828.66;67968;1275;1016469;-64
2024/04/03 08:18:54;;;;;;;;;;;;;;;18.19;42.01;97846.66;68010;1275;1016714;-65
2024/04/03 08:21:56;;;;;;;;;;;;;;;17.84;42.44;97855.84;68017;1275;1015782;-65
2024/04/03 08:25:00;;;;;;;;;;;;;;;17.83;43.30;97849.83;68016;1275;1016428;-65
2024/04/03 08:28:03;;;;;;;;;;;;;;;17.83;43.11;97853.52;68002;1275;1016404;-65
2024/04/03 08:31:05;;;;;;;;;;;;;;;17.96;42.94;97840.84;67993;1275;1016438;-65
2024/04/03 08:34:08;;;;;;;;;;;;;;;18.02;42.61;97846.76;67991;1275;1018939;-64
2024/04/03 08:37:12;;;;;;;;;;;;;;;17.82;43.11;97857.34;68000;1275;1016077;-64
2024/04/03 08:40:14;;;;;;;;;;;;;;;17.88;42.79;97845.55;68026;1275;1017269;-65
2024/04/03 08:43:17;;;;;;;;;;;;;;;17.99;42.16;97864.85;68037;1275;1016133;-64
2024/04/03 08:46:19;;;;;;;;;;;;;;;17.90;42.44;97860.52;68020;1275;1016420;-65
2024/04/03 08:49:22;;;;;;;;;;;;;;;17.95;42.66;97854.37;67976;1275;1016271;-65
2024/04/03 08:52:24;;;;;;;;;;;;;;;18.16;42.70;97854.97;67966;1275;1016465;-64
2024/04/03 08:55:27;;;;;;;;;;;;;;;18.22;41.67;97853.25;67998;1275;1016421;-65
2024/04/03 08:58:29;;;;;;;;;;;;;;;18.20;41.90;97861.09;68009;1275;1016638;-65
2024/04/03 09:01:34;;;;;;;;;;;;;;;18.16;41.81;97857.28;67984;1275;1016397;-65
2024/04/03 09:04:37;;;;;;;;;;;;;;;17.78;41.81;97876.24;67985;1275;1016172;-65
2024/04/03 09:07:39;;;;;;;;;;;;;;;17.56;42.45;97876.48;68046;1275;1016504;-64
2024/04/03 09:10:47;;;;;;;;;;;;;;;17.51;41.75;97878.65;67975;1275;1016479;-65
2024/04/03 09:13:49;;;;;;;;;;;;;;;17.28;42.21;97873.76;68019;1275;1016254;-64
2024/04/03 09:16:51;;;;;;;;;;;;;;;17.22;41.89;97885.48;68019;1275;1016125;-65
2024/04/03 09:19:54;;;;;;;;;;;;;;;17.53;42.02;97866.20;67994;1275;1016571;-65
2024/04/03 09:22:56;;;;;;;;;;;;;;;17.51;42.10;97869.27;67976;1275;1016325;-65
2024/04/03 09:25:59;;;;;;;;;;;;;;;17.73;41.89;97876.95;68009;1275;1016257;-65
2024/04/03 09:29:01;;;;;;;;;;;;;;;17.76;41.40;97868.91;68011;1275;1016340;-64
2024/04/03 09:32:08;;;;;;;;;;;;;;;18.05;40.38;97881.60;67964;1275;1018399;-65
2024/04/03 09:35:11;;;;;;;;;;;;;;;18.12;40.22;97887.07;67997;1275;1016408;-65
2024/04/03 09:38:14;;;;;;;;;;;;;;;18.46;40.16;97880.23;67998;1275;1016082;-65
2024/04/03 09:41:16;;;;;;;;;;;;;;;18.58;40.44;97886.83;67955;1275;1016567;-65
2024/04/03 09:44:19;;;;;;;;;;;;;;;18.66;39.58;97888.48;67977;1275;1016423;-65
2024/04/03 09:47:21;;;;;;;;;;;;;;;18.76;40.03;97877.91;68018;1275;1016331;-65
2024/04/03 09:50:24;;;;;;;;;;;;;;;18.97;39.99;97878.55;68021;1275;1016336;-65
2024/04/03 09:53:27;;;;;;;;;;;;;;;18.91;39.15;97894.30;68026;1275;1016106;-66
2024/04/03 09:56:29;;;;;;;;;;;;;;;19.10;39.47;97899.15;68019;1275;1016462;-65
2024/04/03 09:59:32;;;;;;;;;;;;;;;19.22;39.80;97885.05;68048;1275;1016383;-64
2024/04/03 10:02:34;;;;;;;;;;;;;;;19.15;39.47;97893.09;67991;1275;1015858;-65
2024/04/03 10:05:37;;;;;;;;;;;;;;;19.01;39.64;97890.02;67974;1275;1016226;-65
2024/04/03 10:08:39;;;;;;;;;;;;;;;19.00;39.54;97887.84;67976;1275;1016136;-65
2024/04/03 10:11:42;;;;;;;;;;;;;;;19.08;39.25;97898.26;68034;1275;1016427;-65
2024/04/03 10:14:44;;;;;;;;;;;;;;;19.24;39.45;97896.88;68016;1275;1016420;-64
2024/04/03 10:17:46;;;;;;;;;;;;;;;20.02;39.94;97873.88;68044;1275;1016430;-64
2024/04/03 10:20:48;;;;;;;;;;;;;;;20.08;38.03;97882.77;68029;1275;1016272;-64
2024/04/03 10:23:51;;;;;;;;;;;;;;;19.79;37.49;97897.77;67937;1275;1016420;-64
2024/04/03 10:26:53;;;;;;;;;;;;;;;20.02;39.05;97896.43;68010;1275;1016308;-64
2024/04/03 10:29:56;;;;;;;;;;;;;;;20.10;37.13;97891.77;68036;1275;1016387;-65
2024/04/03 10:33:00;;;;;;;;;;;;;;;19.79;37.98;97893.32;68044;1275;1016804;-64
2024/04/03 10:36:14;;;;;;;;;;;;;;;;;;;;;
2024/04/03 10:39:26;;;;;;;;;;;;;;;20.10;36.44;97892.70;68032;1275;1016327;-65
2024/04/03 10:42:30;;;;;;;;;;;;;;;19.91;35.84;97908.36;68013;1275;1016508;-65
2024/04/03 10:45:32;;;;;;;;;;;;;;;20.10;35.95;97906.15;68012;1275;1016311;-65
2024/04/03 10:48:34;;;;;;;;;;;;;;;19.87;34.95;97912.38;68046;1275;1016277;-64
2024/04/03 10:51:37;;;;;;;;;;;;;;;19.62;34.86;97927.52;68013;1275;1016761;-65
2024/04/03 10:54:40;;;;;;;;;;;;;;;19.16;34.36;97956.54;67980;1275;1016429;-64
2024/04/03 10:57:42;;;;;;;;;;;;;;;18.90;35.31;97947.02;68043;1275;1018151;-64
2024/04/03 11:00:44;;;;;;;;;;;;;;;18.87;35.21;97940.58;68062;1275;1015837;-65
2024/04/03 11:03:47;;;;;;;;;;;;;;;19.01;35.92;97934.48;68025;1275;1016737;-65
2024/04/03 11:06:51;;;;;;;;;;;;;;;19.11;35.46;97941.20;68071;1275;1016927;-64
2024/04/03 11:09:53;;;;;;;;;;;;;;;18.95;35.26;97932.84;68010;1275;1016504;-63
2024/04/03 11:12:55;;;;;;;;;;;;;;;19.15;34.91;97927.94;67964;1275;1016433;-64
2024/04/03 11:15:58;;;;;;;;;;;;;;;19.01;34.66;97933.91;68010;1275;1018196;-65
2024/04/03 11:19:01;;;;;;;;;;;;;;;18.97;35.28;97946.08;68042;1275;1016260;-65
2024/04/03 11:22:06;;;;;;;;;;;;;;;19.02;34.52;97948.13;67984;1275;1016247;-64
2024/04/03 11:25:12;;;;;;;;;;;;;;;19.24;34.87;97944.16;68032;1275;1016408;-65
2024/04/03 11:28:14;;;;;;;;;;;;;;;19.38;33.99;97949.46;68038;1275;1017238;-65
2024/04/03 11:31:17;;;;;;;;;;;;;;;19.38;34.12;97945.05;68034;1275;1016410;-65
2024/04/03 11:34:19;;;;;;;;;;;;;;;19.49;34.49;97943.84;68069;1275;1017198;-65
2024/04/03 11:37:21;;;;;;;;;;;;;;;19.59;34.60;97941.17;68046;1275;1016525;-66
2024/04/03 11:40:24;;;;;;;;;;;;;;;19.77;35.49;97938.61;68033;1275;1016336;-65
2024/04/03 11:43:26;;;;;;;;;;;;;;;19.96;34.95;97923.08;67995;1275;1017246;-65
2024/04/03 11:46:28;;;;;;;;;;;;;;;19.61;34.19;97945.69;68011;1275;1016403;-65
2024/04/03 11:49:31;;;;;;;;;;;;;;;19.43;34.57;97938.02;68019;1275;1016635;-65
2024/04/03 11:52:33;;;;;;;;;;;;;;;19.41;34.50;97942.48;68027;1275;1016465;-64
2024/04/03 11:55:36;;;;;;;;;;;;;;;19.12;34.95;97960.33;68008;1275;1016544;-67
2024/04/03 11:58:40;;;;;;;;;;;;;;;19.20;34.85;97949.55;67988;1275;1016321;-63
2024/04/03 12:01:43;;;;;;;;;;;;;;;19.51;35.49;97948.09;68037;1275;1016211;-65
2024/04/03 12:04:46;;;;;;;;;;;;;;;19.85;35.39;97954.59;67980;1275;1016533;-65
2024/04/03 12:07:49;;;;;;;;;;;;;;;20.13;34.69;97957.34;67951;1275;1016390;-65
2024/04/03 12:10:51;;;;;;;;;;;;;;;20.10;34.37;97969.33;68005;1275;1016431;-65
2024/04/03 12:13:53;;;;;;;;;;;;;;;19.94;35.16;97964.63;67979;1275;1016513;-65
2024/04/03 12:16:56;;;;;;;;;;;;;;;20.01;34.99;97947.30;67977;1275;1016272;-64
2024/04/03 12:20:06;;;;;;;;;;;;;;;19.87;35.23;97954.25;68025;1275;1016469;-64
2024/04/03 12:23:09;;;;;;;;;;;;;;;19.67;35.16;97952.83;68031;1275;1016470;-64
2024/04/03 12:26:11;;;;;;;;;;;;;;;19.64;35.31;97952.09;68047;1275;1016484;-65
2024/04/03 12:29:16;;;;;;;;;;;;;;;19.46;36.09;97961.54;68025;1275;1016790;-65
2024/04/03 12:32:18;;;;;;;;;;;;;;;19.59;35.86;97971.17;67999;1275;1016108;-65
2024/04/03 12:35:21;;;;;;;;;;;;;;;19.72;36.34;97974.41;68058;1275;1016435;-65
2024/04/03 12:38:24;;;;;;;;;;;;;;;20.02;35.96;97984.75;68010;1275;1016226;-65
2024/04/03 12:41:27;;;;;;;;;;;;;;;20.00;35.98;97973.14;68007;1275;1016471;-64
2024/04/03 12:44:29;;;;;;;;;;;;;;;19.89;35.76;97987.20;68054;1275;1016461;-65
2024/04/03 12:47:33;;;;;;;;;;;;;;;20.16;35.08;97991.15;68012;1275;1016261;-65
2024/04/03 12:50:35;;;;;;;;;;;;;;;20.06;35.27;97985.02;68064;1275;1016911;-65
2024/04/03 12:53:37;;;;;;;;;;;;;;;19.74;36.47;97975.14;68059;1275;1016308;-64
2024/04/03 12:56:40;;;;;;;;;;;;;;;19.67;36.05;97978.95;68047;1275;1016507;-64
2024/04/03 12:59:42;;;;;;;;;;;;;;;19.66;36.12;97981.80;68042;1275;1016336;-65
2024/04/03 13:02:44;;;;;;;;;;;;;;;19.52;36.00;97979.93;68039;1275;1016476;-65
2024/04/03 13:05:46;;;;;;;;;;;;;;;19.38;36.06;97986.06;68017;1275;1016127;-65
2024/04/03 13:08:49;;;;;;;;;;;;;;;19.53;36.05;97985.68;67991;1275;1016337;-64
2024/04/03 13:11:52;;;;;;;;;;;;;;;19.97;35.69;97992.89;68020;1275;1016447;-64
2024/04/03 13:14:55;;;;;;;;;;;;;;;20.48;35.42;97986.25;68042;1275;1016104;-65
2024/04/03 13:17:57;;;;;;;;;;;;;;;20.63;34.80;97983.86;68012;1275;1016463;-65
2024/04/03 13:20:59;;;;;;;;;;;;;;;20.82;34.98;97975.27;68004;1275;1016465;-64
2024/04/03 13:24:01;;;;;;;;;;;;;;;20.63;35.11;97981.61;68025;1275;1016506;-64
2024/04/03 13:27:04;;;;;;;;;;;;;;;20.31;35.08;98001.06;68048;1275;1016713;-65
2024/04/03 13:30:06;;;;;;;;;;;;;;;19.80;35.39;98007.89;68055;1275;1016902;-65
2024/04/03 13:33:09;;;;;;;;;;;;;;;19.86;34.97;98003.61;68032;1275;1016027;-65
2024/04/03 13:36:11;;;;;;;;;;;;;;;20.02;35.89;97992.06;68021;1275;1016125;-63
2024/04/03 13:39:14;;;;;;;;;;;;;;;20.08;35.72;97998.89;68057;1275;1016311;-64
2024/04/03 13:42:17;;;;;;;;;;;;;;;20.00;35.86;97991.94;68046;1275;1016848;-64
2024/04/03 13:45:19;;;;;;;;;;;;;;;20.07;35.87;98000.59;68003;1275;1019580;-65
2024/04/03 13:48:22;;;;;;;;;;;;;;;20.10;36.19;98004.14;68039;1275;1016504;-64
2024/04/03 13:51:24;;;;;;;;;;;;;;;20.16;35.87;98003.30;68044;1275;1016078;-65
2024/04/03 13:54:27;;;;;;;;;;;;;;;20.17;36.46;98003.50;68036;1275;1016442;-65
2024/04/03 13:57:29;;;;;;;;;;;;;;;20.11;35.99;98001.50;67983;1275;1016479;-65
2024/04/03 14:00:31;;;;;;;;;;;;;;;20.09;36.48;98001.61;68032;1275;1018228;-65
2024/04/03 14:03:34;;;;;;;;;;;;;;;20.34;36.60;98008.36;68017;1275;1016309;-65
2024/04/03 14:06:36;;;;;;;;;;;;;;;20.16;35.65;98016.38;68068;1275;1016294;-65
2024/04/03 14:09:39;;;;;;;;;;;;;;;19.99;35.73;98016.03;68058;1275;1016423;-65
2024/04/03 14:12:44;;;;;;;;;;;;;;;20.28;34.71;98021.30;68006;1275;1016399;-65
2024/04/03 14:15:47;;;;;;;;;;;;;;;20.54;34.45;98016.52;68070;1275;1016323;-64
2024/04/03 14:18:49;;;;;;;;;;;;;;;20.57;34.84;98013.69;67990;1275;1016483;-65
2024/04/03 14:21:53;;;;;;;;;;;;;;;20.21;34.76;98027.32;68071;1275;1017431;-65
2024/04/03 14:24:57;;;;;;;;;;;;;;;20.02;34.63;98035.04;68020;1275;1015917;-64
2024/04/03 14:27:59;;;;;;;;;;;;;;;19.99;34.89;98033.23;68016;1275;1016372;-65
2024/04/03 14:31:02;;;;;;;;;;;;;;;20.28;34.89;98027.13;67999;1275;1016222;-64
2024/04/03 14:34:04;;;;;;;;;;;;;;;20.56;35.02;98033.92;68067;1275;1016212;-64
2024/04/03 14:37:08;;;;;;;;;;;;;;;20.54;35.46;98038.85;68045;1275;1016434;-65
2024/04/03 14:40:11;;;;;;;;;;;;;;;20.38;34.68;98049.37;68068;1275;1018166;-64
2024/04/03 14:43:15;;;;;;;;;;;;;;;20.19;35.70;98046.08;68045;1275;1016497;-64
2024/04/03 14:46:17;;;;;;;;;;;;;;;20.53;35.28;98047.86;67998;1275;1016263;-65
2024/04/03 14:49:20;;;;;;;;;;;;;;;20.33;35.41;98065.91;67955;1275;1016311;-64
2024/04/03 14:52:23;;;;;;;;;;;;;;;20.02;35.47;98074.44;68007;1275;1017734;-64
2024/04/03 14:55:27;;;;;;;;;;;;;;;20.18;35.57;98064.08;67967;1275;1016488;-65
2024/04/03 14:58:33;;;;;;;;;;;;;;;20.71;35.26;98055.61;67995;1275;1016008;-64
2024/04/03 15:01:36;;;;;;;;;;;;;;;20.85;35.18;98062.36;67983;1275;1017309;-62
2024/04/03 15:04:38;;;;;;;;;;;;;;;20.48;35.98;98063.88;68065;1275;1016449;-65
2024/04/03 15:07:41;;;;;;;;;;;;;;;20.61;35.46;98047.55;68031;1275;1016477;-65
2024/04/03 15:10:43;;;;;;;;;;;;;;;20.45;35.41;98064.91;68046;1275;1017258;-65
2024/04/03 15:13:45;;;;;;;;;;;;;;;20.48;35.70;98067.29;68020;1275;1016275;-65
2024/04/03 15:16:48;;;;;;;;;;;;;;;20.43;36.00;98065.20;68019;1275;1016424;-65
2024/04/03 15:19:50;;;;;;;;;;;;;;;20.50;35.49;98076.17;68038;1275;1016434;-65
2024/04/03 15:22:53;;;;;;;;;;;;;;;20.55;35.75;98082.27;68034;1275;1017057;-65
2024/04/03 15:25:55;;;;;;;;;;;;;;;20.37;36.07;98095.31;68020;1275;1018288;-65
2024/04/03 15:28:57;;;;;;;;;;;;;;;20.29;36.39;98093.56;68000;1275;1016427;-65
2024/04/03 15:32:02;;;;;;;;;;;;;;;20.17;36.71;98101.67;68015;1275;1016317;-65